Time;durP1;ratioP1;P1;durP2;ratioP2;P2;SDS_P1;SDS_P2;PMS_P1;PMS_P2;Temp;Humidity;BMP_temperature;BMP_pressure;BME280_temperature;BME280_humidity;BME280_pressure;Samples;Min_cycle;Max_cycle;Signal;HPM_P1;HPM_P2
2022/05/07 00:02:16;;;;;;;7.45;4.55;;;;;;;12.67;64.47;101040.53;5045381;28;20132;-71
2022/05/07 00:04:43;;;;;;;6.22;4.78;;;;;;;12.69;64.90;101067.91;5034577;28;20053;-73
2022/05/07 00:07:11;;;;;;;6.55;4.20;;;;;;;12.58;65.65;101052.44;5049401;28;20603;-75
2022/05/07 00:09:37;;;;;;;7.82;4.68;;;;;;;12.43;66.43;101037.19;5023066;28;20175;-71
2022/05/07 00:12:06;;;;;;;8.00;4.50;;;;;;;12.39;66.35;101040.03;5045856;28;20100;-71
2022/05/07 00:14:33;;;;;;;7.13;4.20;;;;;;;12.41;67.32;101056.78;5037435;28;20065;-74
2022/05/07 00:19:46;;;;;;;5.97;4.10;;;;;;;12.26;67.19;101050.34;5044603;28;20168;-71
2022/05/07 00:22:13;;;;;;;5.13;4.00;;;;;;;12.24;67.80;101058.38;5045544;28;20111;-74
2022/05/07 00:24:40;;;;;;;7.97;4.68;;;;;;;12.16;67.90;101049.00;5034015;28;20137;-72
2022/05/07 00:27:07;;;;;;;9.00;4.50;;;;;;;11.99;68.46;101035.56;5038440;28;20091;-71
2022/05/07 00:29:33;;;;;;;6.47;4.45;;;;;;;12.03;69.18;101053.97;5046452;28;20136;-75
2022/05/07 00:32:00;;;;;;;7.63;4.75;;;;;;;11.96;69.72;101052.53;5043462;28;20179;-71
2022/05/07 00:34:27;;;;;;;7.93;4.90;;;;;;;11.74;70.42;101028.63;5043482;28;20112;-71
2022/05/07 00:36:54;;;;;;;7.80;4.82;;;;;;;11.83;70.79;101062.75;5046329;28;20053;-73
2022/05/07 00:39:21;;;;;;;7.55;5.13;;;;;;;11.74;71.17;101059.59;5047975;28;20501;-73
2022/05/07 00:41:48;;;;;;;10.93;5.20;;;;;;;11.59;71.40;101048.69;5053561;28;20331;-72
2022/05/07 00:44:14;;;;;;;8.13;4.95;;;;;;;11.60;71.91;101055.72;5040870;28;20121;-73
2022/05/07 00:46:41;;;;;;;7.57;5.07;;;;;;;11.49;72.28;101041.19;5046141;28;20053;-73
2022/05/07 00:49:08;;;;;;;9.10;5.00;;;;;;;11.53;72.50;101038.31;5042374;28;20060;-72
2022/05/07 00:51:35;;;;;;;5.32;4.55;;;;;;;11.38;72.48;101016.88;5022410;28;20045;-75
2022/05/07 00:54:07;;;;;;;6.78;5.00;;;;;;;11.47;73.48;101043.03;5038885;28;20535;-72
2022/05/07 00:56:36;;;;;;;7.20;4.90;;;;;;;11.39;73.85;101031.84;5045484;28;20208;-74
2022/05/07 00:59:04;;;;;;;6.60;4.60;;;;;;;11.57;72.89;101053.19;5042003;28;20060;-72
2022/05/07 01:01:31;;;;;;;7.22;4.63;;;;;;;11.53;72.92;101053.38;5040385;28;20056;-72
2022/05/07 01:03:58;;;;;;;6.72;5.10;;;;;;;11.54;72.80;101057.75;5038073;28;20049;-73
2022/05/07 01:06:25;;;;;;;7.00;4.88;;;;;;;11.38;73.28;101038.94;5044969;28;20052;-72
2022/05/07 01:08:51;;;;;;;9.60;4.95;;;;;;;11.40;73.52;101049.50;5044911;28;20055;-73
2022/05/07 01:11:19;;;;;;;5.95;4.20;;;;;;;11.39;72.81;101050.41;5037999;28;20147;-70
2022/05/07 01:13:47;;;;;;;7.05;4.68;;;;;;;11.39;73.15;101064.53;5038186;28;20052;-75
2022/05/07 01:16:14;;;;;;;7.82;4.90;;;;;;;11.35;73.40;101046.16;5042935;28;20061;-71
2022/05/07 01:18:42;;;;;;;6.50;4.20;;;;;;;11.39;72.37;101045.97;5047894;28;20401;-71
2022/05/07 01:21:17;;;;;;;6.38;4.10;;;;;;;11.42;71.72;101051.16;5047648;28;20052;-71
2022/05/07 01:23:47;;;;;;;7.22;4.00;;;;;;;11.45;71.92;101050.19;5040066;28;20494;-70
2022/05/07 01:26:16;;;;;;;5.22;4.10;;;;;;;11.43;71.09;101042.28;5037738;28;20420;-71
2022/05/07 01:28:44;;;;;;;7.10;4.10;;;;;;;11.36;71.57;101019.56;5044603;28;20064;-73
2022/05/07 01:31:10;;;;;;;6.15;4.25;;;;;;;11.56;71.95;101034.69;5037883;28;20046;-72
2022/05/07 01:33:38;;;;;;;6.43;3.42;;;;;;;11.67;71.59;101043.06;5043817;28;20948;-73
2022/05/07 01:36:16;;;;;;;7.35;4.28;;;;;;;11.69;70.82;101041.22;5038908;28;20132;-74
2022/05/07 01:38:42;;;;;;;5.93;3.72;;;;;;;11.60;71.06;101018.59;5035468;28;20539;-71
2022/05/07 01:41:09;;;;;;;4.78;3.90;;;;;;;11.66;70.98;101032.50;5041348;28;20057;-70
2022/05/07 01:43:36;;;;;;;6.05;4.18;;;;;;;11.67;71.30;101039.53;5040624;28;20057;-71
2022/05/07 01:46:03;;;;;;;7.53;3.83;;;;;;;11.64;71.41;101040.56;5041542;28;20045;-74
2022/05/07 01:48:30;;;;;;;6.53;4.30;;;;;;;11.67;71.20;101039.53;5025676;28;20618;-72
2022/05/07 01:50:56;;;;;;;4.47;4.07;;;;;;;11.68;71.03;101038.63;5037903;28;20049;-71
2022/05/07 01:53:23;;;;;;;4.95;3.83;;;;;;;11.65;71.08;101041.44;5038284;28;20378;-73
2022/05/07 01:55:49;;;;;;;6.43;4.28;;;;;;;11.66;70.90;101043.97;5038833;28;20427;-74
2022/05/07 01:58:16;;;;;;;4.97;4.03;;;;;;;11.57;71.06;101044.38;5020646;28;20049;-72
2022/05/07 02:00:43;;;;;;;6.55;4.18;;;;;;;11.55;71.17;101041.78;5043225;28;20045;-71
2022/05/07 02:03:09;;;;;;;4.70;3.58;;;;;;;11.49;71.11;101041.19;5026710;28;20937;-74
2022/05/07 02:05:36;;;;;;;5.50;4.00;;;;;;;11.43;71.40;101031.69;5041864;28;20065;-71
2022/05/07 02:08:04;;;;;;;7.68;4.13;;;;;;;11.36;71.81;101043.44;5043515;28;20049;-72
2022/05/07 02:10:30;;;;;;;4.85;4.00;;;;;;;11.25;72.83;101038.56;5034214;28;20054;-71
2022/05/07 02:12:57;;;;;;;6.90;4.50;;;;;;;11.20;72.92;101039.66;5042772;28;20072;-74
2022/05/07 02:15:24;;;;;;;6.53;5.00;;;;;;;11.13;73.71;101046.16;5043350;28;20049;-72
2022/05/07 02:17:51;;;;;;;5.82;4.55;;;;;;;11.10;73.66;101044.47;5042295;28;20041;-70
2022/05/07 02:20:18;;;;;;;5.78;4.57;;;;;;;11.04;73.84;101038.53;5036912;28;20053;-73
2022/05/07 02:22:44;;;;;;;5.40;4.18;;;;;;;10.94;73.97;101023.91;5035936;28;20544;-72
2022/05/07 02:25:12;;;;;;;5.95;4.30;;;;;;;10.94;74.30;101038.03;5038530;28;20057;-71
2022/05/07 02:27:41;;;;;;;5.88;4.25;;;;;;;10.88;74.90;101031.16;5040925;28;20134;-71
2022/05/07 02:30:08;;;;;;;5.18;4.22;;;;;;;10.86;74.97;101035.66;5022135;28;20689;-71
2022/05/07 02:32:35;;;;;;;7.85;4.18;;;;;;;10.87;75.13;101034.75;5040161;28;20155;-71
2022/05/07 02:35:02;;;;;;;8.65;4.50;;;;;;;10.86;74.80;101040.97;5028568;28;20083;-75
2022/05/07 02:37:29;;;;;;;5.68;3.92;;;;;;;10.85;74.94;101038.41;5043240;28;20053;-71
2022/05/07 02:39:55;;;;;;;6.18;4.00;;;;;;;10.60;75.28;101005.78;5040845;28;20069;-71
2022/05/07 02:42:36;;;;;;;5.47;4.15;;;;;;;10.52;75.33;101008.75;5038390;28;20053;-74
2022/05/07 02:45:06;;;;;;;5.82;4.30;;;;;;;10.72;75.74;101045.91;5042151;28;20052;-70
2022/05/07 02:47:36;;;;;;;6.03;4.30;;;;;;;10.67;76.27;101042.59;5040534;28;20049;-72
2022/05/07 02:50:08;;;;;;;6.65;4.57;;;;;;;10.68;76.50;101046.97;5043685;28;20053;-74
2022/05/07 02:52:38;;;;;;;7.80;4.47;;;;;;;10.61;76.74;101045.47;5042309;28;20044;-71
2022/05/07 02:55:07;;;;;;;6.23;4.70;;;;;;;10.52;77.20;101040.50;5039781;28;20138;-71
2022/05/07 02:57:34;;;;;;;8.02;4.85;;;;;;;10.52;77.46;101044.03;5031985;28;20080;-74
2022/05/07 03:00:01;;;;;;;7.60;4.60;;;;;;;10.38;77.38;101022.47;5043541;28;20128;-71
2022/05/07 03:02:28;;;;;;;5.63;4.22;;;;;;;10.46;77.37;101048.66;5018847;28;20045;-72
2022/05/07 03:04:55;;;;;;;6.10;4.50;;;;;;;10.46;77.87;101041.59;5019544;28;20081;-72
2022/05/07 03:07:21;;;;;;;6.50;4.32;;;;;;;10.51;77.47;101044.94;5042645;28;20053;-71
2022/05/07 03:09:48;;;;;;;7.85;4.78;;;;;;;10.56;77.53;101042.09;5044219;28;20073;-73
2022/05/07 03:12:15;;;;;;;5.80;4.35;;;;;;;10.55;76.90;101033.28;5038011;28;20069;-72
2022/05/07 03:14:41;;;;;;;5.32;4.38;;;;;;;10.48;77.02;101025.66;5043396;28;20057;-71
2022/05/07 03:17:08;;;;;;;5.75;4.20;;;;;;;10.52;76.78;101036.09;5044258;28;20056;-71
2022/05/07 03:19:35;;;;;;;5.75;4.28;;;;;;;10.53;77.18;101031.66;5042664;28;20052;-73
2022/05/07 03:22:02;;;;;;;4.80;4.20;;;;;;;10.57;76.94;101029.72;5036991;28;20053;-72
2022/05/07 03:24:28;;;;;;;7.72;4.85;;;;;;;10.51;77.04;101038.78;5038738;28;20104;-71
2022/05/07 03:26:55;;;;;;;6.70;4.78;;;;;;;10.40;77.68;101036.50;5044423;28;20068;-72
2022/05/07 03:29:21;;;;;;;8.32;4.45;;;;;;;10.16;78.08;101017.03;5035319;28;20056;-72
2022/05/07 03:31:49;;;;;;;6.65;4.88;;;;;;;10.24;78.41;101037.09;5044205;28;20161;-72
2022/05/07 03:34:16;;;;;;;6.45;4.50;;;;;;;10.19;78.74;101043.44;5041429;28;20060;-73
2022/05/07 03:36:43;;;;;;;8.25;4.82;;;;;;;10.12;79.04;101031.28;5039998;28;20140;-72
2022/05/07 03:39:11;;;;;;;7.07;4.75;;;;;;;10.08;78.98;101029.66;5038669;28;20072;-77
2022/05/07 03:41:39;;;;;;;7.53;5.05;;;;;;;10.09;79.01;101035.81;5036453;28;20555;-72
2022/05/07 03:44:05;;;;;;;5.95;4.80;;;;;;;9.93;79.54;101016.09;5044465;28;20065;-71
2022/05/07 03:46:32;;;;;;;8.77;4.90;;;;;;;9.96;79.54;101026.59;5047077;28;20396;-72
2022/05/07 03:48:59;;;;;;;7.22;4.80;;;;;;;9.94;79.91;101031.06;5039797;28;20452;-72
2022/05/07 03:51:26;;;;;;;7.93;5.60;;;;;;;9.93;80.06;101030.19;5051375;28;20040;-72
2022/05/07 03:53:52;;;;;;;6.93;4.78;;;;;;;9.92;80.03;101030.25;5044648;28;20118;-72
2022/05/07 03:56:19;;;;;;;9.40;5.47;;;;;;;9.99;80.05;101032.66;5043529;28;20551;-72
2022/05/07 03:58:46;;;;;;;7.88;4.78;;;;;;;10.03;80.06;101042.22;5041933;28;20143;-71
2022/05/07 04:01:15;;;;;;;7.78;5.07;;;;;;;9.92;80.06;101032.88;5043031;28;20679;-71
2022/05/07 04:03:42;;;;;;;8.45;5.00;;;;;;;9.90;80.42;101046.19;5040432;28;20049;-71
2022/05/07 04:06:08;;;;;;;6.43;5.03;;;;;;;9.87;80.86;101046.28;5025512;28;20551;-71
2022/05/07 04:08:35;;;;;;;12.02;5.35;;;;;;;9.81;81.12;101041.19;5041191;28;20199;-74
2022/05/07 04:11:02;;;;;;;10.27;5.75;;;;;;;9.80;81.52;101037.69;5044013;28;20481;-73
2022/05/07 04:13:29;;;;;;;7.95;5.75;;;;;;;9.80;81.00;101029.75;5038283;28;20049;-71
2022/05/07 04:15:55;;;;;;;8.55;5.57;;;;;;;9.69;81.44;101007.22;5036701;28;20057;-72
2022/05/07 04:18:22;;;;;;;10.27;4.95;;;;;;;9.90;81.65;101045.34;5047386;28;20047;-72
2022/05/07 04:20:49;;;;;;;6.75;5.25;;;;;;;9.93;81.32;101046.06;5039021;28;20045;-71
2022/05/07 04:23:15;;;;;;;8.65;5.50;;;;;;;9.97;81.11;101047.69;5042273;28;20065;-77
2022/05/07 04:25:42;;;;;;;5.40;4.75;;;;;;;9.91;81.13;101047.94;5046017;28;20085;-71
2022/05/07 04:28:09;;;;;;;5.68;4.43;;;;;;;9.87;81.30;101046.28;5045595;28;20347;-76
2022/05/07 04:30:37;;;;;;;7.25;5.45;;;;;;;9.92;81.94;101054.91;5037169;28;20132;-73
2022/05/07 04:33:04;;;;;;;9.30;5.18;;;;;;;9.90;82.10;101059.44;5050123;28;20047;-71
2022/05/07 04:35:30;;;;;;;9.95;5.40;;;;;;;9.93;82.33;101059.28;5044379;28;20059;-71
2022/05/07 04:37:57;;;;;;;8.90;5.13;;;;;;;9.98;82.39;101053.84;5041490;28;20053;-74
2022/05/07 04:40:23;;;;;;;7.90;5.22;;;;;;;10.04;81.97;101053.66;5043678;28;20151;-72
2022/05/07 04:42:50;;;;;;;7.55;5.10;;;;;;;10.09;81.55;101055.22;5043365;28;20068;-72
2022/05/07 04:45:17;;;;;;;10.90;6.80;;;;;;;10.18;81.39;101054.03;5037441;28;20544;-71
2022/05/07 04:47:43;;;;;;;9.40;5.40;;;;;;;10.31;80.79;101058.03;5023795;28;20512;-74
2022/05/07 04:50:11;;;;;;;5.82;4.80;;;;;;;10.34;80.32;101051.75;5037577;28;20148;-78
2022/05/07 04:52:38;;;;;;;6.65;4.78;;;;;;;10.45;79.94;101057.53;5040307;28;20048;-73
2022/05/07 04:55:06;;;;;;;7.85;5.45;;;;;;;10.46;79.58;101056.59;5039880;28;20144;-74
2022/05/07 04:57:32;;;;;;;10.15;5.57;;;;;;;10.52;79.41;101064.34;5043604;28;20060;-71
2022/05/07 04:59:59;;;;;;;9.15;5.57;;;;;;;10.41;79.56;101053.25;5035857;28;20758;-71
2022/05/07 05:02:28;;;;;;;10.30;5.68;;;;;;;10.56;79.65;101060.66;5038518;28;20051;-71
2022/05/07 05:04:55;;;;;;;7.97;4.93;;;;;;;10.66;79.16;101063.84;5039810;28;20478;-71
2022/05/07 05:07:22;;;;;;;7.15;5.10;;;;;;;10.72;78.92;101067.09;5039444;28;20045;-78
2022/05/07 05:09:48;;;;;;;6.38;5.07;;;;;;;10.78;79.04;101069.53;5046477;28;20556;-76
2022/05/07 05:12:17;;;;;;;8.55;5.35;;;;;;;10.44;78.61;101011.66;5020836;28;20065;-70
2022/05/07 05:15:07;;;;;;;6.22;5.15;;;;;;;10.81;79.01;101068.56;5041171;28;20126;-72
2022/05/07 05:17:34;;;;;;;8.55;5.03;;;;;;;10.94;78.61;101077.78;5035207;28;20060;-72
2022/05/07 05:20:03;;;;;;;6.88;5.03;;;;;;;11.01;78.26;101078.44;5043921;28;20064;-73
2022/05/07 05:22:30;;;;;;;10.90;5.43;;;;;;;11.04;78.04;101073.84;5038866;28;20049;-71
2022/05/07 05:24:58;;;;;;;10.23;5.00;;;;;;;11.06;78.09;101077.31;5041521;28;20114;-73
2022/05/07 05:27:24;;;;;;;7.20;4.88;;;;;;;11.01;77.90;101054.59;5038050;28;20122;-72
2022/05/07 05:29:51;;;;;;;8.95;5.68;;;;;;;11.17;77.62;101072.50;5043440;28;20072;-70
2022/05/07 05:32:18;;;;;;;6.78;4.90;;;;;;;11.29;77.20;101076.44;5036578;28;20065;-73
2022/05/07 05:34:49;;;;;;;6.90;5.30;;;;;;;11.44;76.11;101075.84;5038404;28;20131;-71
2022/05/07 05:37:16;;;;;;;7.60;5.32;;;;;;;11.55;75.43;101078.06;5044292;28;20040;-72
2022/05/07 05:39:44;;;;;;;9.32;5.03;;;;;;;11.65;74.66;101075.91;5038979;28;20053;-71
2022/05/07 05:42:12;;;;;;;7.53;4.88;;;;;;;11.66;74.44;101056.38;5044041;28;20044;-74
2022/05/07 05:44:40;;;;;;;7.90;5.30;;;;;;;11.93;74.27;101085.34;5041718;28;20057;-75
2022/05/07 05:47:07;;;;;;;9.60;4.95;;;;;;;12.04;73.74;101079.59;5022553;28;20095;-71
2022/05/07 05:49:35;;;;;;;9.77;4.60;;;;;;;12.18;72.61;101085.19;5020249;28;20049;-71
2022/05/07 05:52:03;;;;;;;5.88;4.50;;;;;;;12.32;71.97;101092.53;5043228;28;20137;-74
2022/05/07 05:54:30;;;;;;;7.10;4.65;;;;;;;12.35;70.54;101059.69;5033764;28;20080;-70
2022/05/07 05:56:58;;;;;;;7.03;4.80;;;;;;;12.61;69.02;101092.13;5041742;28;21425;-72
2022/05/07 05:59:25;;;;;;;7.43;4.47;;;;;;;12.71;67.72;101083.78;5038819;28;20543;-71
2022/05/07 06:01:52;;;;;;;6.22;3.80;;;;;;;12.78;67.81;101077.22;5039229;28;20138;-70
2022/05/07 06:04:19;;;;;;;5.05;3.72;;;;;;;12.85;66.79;101065.41;5036680;28;20568;-71
2022/05/07 06:06:46;;;;;;;5.20;3.53;;;;;;;13.14;65.31;101082.66;5032164;28;20481;-72
2022/05/07 06:09:13;;;;;;;4.50;3.33;;;;;;;13.32;64.50;101087.16;5044719;28;20559;-71
2022/05/07 06:11:39;;;;;;;6.72;3.75;;;;;;;13.53;62.78;101085.28;5041752;28;20405;-73
2022/05/07 06:14:06;;;;;;;4.55;3.17;;;;;;;13.81;62.43;101088.31;5038829;28;20062;-72
2022/05/07 06:16:33;;;;;;;5.25;3.47;;;;;;;14.04;61.49;101081.81;5041332;28;20052;-71
2022/05/07 06:19:00;;;;;;;5.85;3.30;;;;;;;14.36;59.64;101085.50;5039674;28;20064;-74
2022/05/07 06:21:26;;;;;;;4.93;3.25;;;;;;;14.58;58.96;101082.63;5036983;28;20132;-74
2022/05/07 06:23:53;;;;;;;6.35;3.80;;;;;;;14.94;57.98;101079.81;5046146;28;20045;-72
2022/05/07 06:29:05;;;;;;;5.78;3.22;;;;;;;15.95;55.15;101075.00;5039347;28;20468;-72
2022/05/07 06:31:32;;;;;;;4.82;3.30;;;;;;;16.61;53.88;101083.50;5038191;28;20068;-71
2022/05/07 06:33:59;;;;;;;5.15;3.20;;;;;;;17.19;52.95;101079.88;5035656;28;20128;-71
2022/05/07 06:36:25;;;;;;;5.10;3.72;;;;;;;17.64;52.06;101070.72;5016619;28;20057;-73
2022/05/07 06:38:52;;;;;;;6.18;4.03;;;;;;;17.94;50.96;101085.75;5038889;28;20564;-75
2022/05/07 06:41:19;;;;;;;5.50;3.40;;;;;;;18.19;50.64;101089.34;5019784;28;20085;-74
2022/05/07 06:43:46;;;;;;;6.05;4.07;;;;;;;18.27;49.99;101071.88;5037992;28;20075;-72
2022/05/07 06:46:12;;;;;;;4.97;3.53;;;;;;;18.31;48.60;101081.44;5041069;28;20045;-71
2022/05/07 06:48:39;;;;;;;4.97;3.30;;;;;;;18.47;50.08;101091.00;5042141;28;20325;-72
2022/05/07 06:51:07;;;;;;;5.15;3.53;;;;;;;18.41;48.97;101067.31;5042877;28;20057;-78
2022/05/07 06:53:34;;;;;;;4.15;3.10;;;;;;;18.45;50.07;101092.94;5035699;28;20747;-73
2022/05/07 06:56:03;;;;;;;6.88;3.22;;;;;;;18.34;49.15;101087.44;5036944;28;20053;-78
2022/05/07 06:58:34;;;;;;;6.45;3.30;;;;;;;18.07;50.58;101070.56;5033928;28;20049;-73
2022/05/07 07:01:02;;;;;;;5.95;3.50;;;;;;;18.05;50.29;101076.03;5034458;28;20133;-75
2022/05/07 07:03:30;;;;;;;4.55;3.70;;;;;;;18.02;50.44;101057.47;5037893;28;20152;-75
2022/05/07 07:05:58;;;;;;;6.60;3.45;;;;;;;18.27;49.36;101078.09;5036546;28;20947;-73
2022/05/07 07:08:28;;;;;;;4.90;3.28;;;;;;;18.50;49.02;101093.47;5037786;28;20445;-73
2022/05/07 07:10:55;;;;;;;4.28;2.97;;;;;;;18.80;48.90;101095.03;5035911;28;20080;-79
2022/05/07 07:13:22;;;;;;;4.35;3.60;;;;;;;18.86;48.37;101075.81;5035272;28;20048;-78
2022/05/07 07:15:49;;;;;;;4.38;3.50;;;;;;;18.96;47.64;101092.97;5015322;28;20053;-77
2022/05/07 07:18:16;;;;;;;5.18;3.67;;;;;;;18.69;48.78;101085.06;5035521;28;20080;-74
2022/05/07 07:20:44;;;;;;;5.00;3.40;;;;;;;18.68;48.21;101087.84;5045581;28;20117;-80
2022/05/07 07:23:11;;;;;;;4.13;3.28;;;;;;;18.48;49.53;101091.88;5041927;28;20536;-73
2022/05/07 07:25:40;;;;;;;4.05;3.33;;;;;;;18.41;49.17;101085.22;5043877;28;20052;-81
2022/05/07 07:28:12;;;;;;;5.10;3.63;;;;;;;18.46;49.96;101100.00;5053690;28;20045;-81
2022/05/07 07:30:39;;;;;;;4.13;3.42;;;;;;;18.53;50.00;101057.56;5039792;28;20088;-75
2022/05/07 07:33:07;;;;;;;4.70;2.90;;;;;;;19.08;47.49;101048.28;5042325;28;20049;-74
2022/05/07 07:35:33;;;;;;;5.40;3.28;;;;;;;19.71;47.09;101091.09;5044028;28;20107;-71
2022/05/07 07:38:01;;;;;;;3.45;2.78;;;;;;;20.09;45.97;101082.88;5047165;28;20044;-72
2022/05/07 07:40:29;;;;;;;4.85;3.00;;;;;;;20.35;45.86;101064.72;5039692;28;20080;-73
2022/05/07 07:42:55;;;;;;;3.83;3.30;;;;;;;20.55;44.37;101093.69;5043075;28;20133;-75
2022/05/07 07:48:10;;;;;;;6.18;3.17;;;;;;;20.07;45.89;101092.88;5046228;28;20049;-74
2022/05/07 07:50:38;;;;;;;5.03;3.17;;;;;;;20.18;45.56;101086.69;5042628;28;20122;-76
2022/05/07 07:53:10;;;;;;;3.70;3.08;;;;;;;19.90;45.92;101043.09;5047310;28;20098;-75
2022/05/07 07:55:40;;;;;;;5.50;3.60;;;;;;;19.99;46.25;101068.41;5043021;28;20150;-76
2022/05/07 07:58:08;;;;;;;5.72;3.40;;;;;;;20.03;45.54;101079.78;5047508;28;20073;-74
2022/05/07 08:00:37;;;;;;;7.45;3.38;;;;;;;20.27;46.29;101078.78;5044772;28;20064;-75
2022/05/07 08:03:11;;;;;;;5.45;3.35;;;;;;;20.93;44.58;101081.75;5047964;28;20045;-76
2022/05/07 08:05:39;;;;;;;3.67;2.95;;;;;;;21.60;42.67;101079.88;5040740;28;20080;-80
2022/05/07 08:13:42;;;;;;;3.83;2.95;;;;;;;22.50;40.28;101082.25;5044180;28;20136;-76
2022/05/07 08:16:10;;;;;;;4.95;3.20;;;;;;;22.77;39.85;101079.03;5045496;28;20163;-79
2022/05/07 08:18:41;;;;;;;5.57;3.20;;;;;;;22.85;38.96;101076.50;5032152;28;20635;-78
2022/05/07 08:21:10;;;;;;;4.80;2.80;;;;;;;22.71;39.58;101061.47;5045594;28;20045;-77
2022/05/07 08:23:38;;;;;;;7.72;3.42;;;;;;;22.31;40.50;101078.41;5042832;28;20122;-76
2022/05/07 08:26:07;;;;;;;4.78;3.13;;;;;;;21.81;41.25;101050.28;5044308;28;20056;-77
2022/05/07 08:28:35;;;;;;;5.82;2.88;;;;;;;21.75;41.69;101084.97;5043281;28;20045;-77
2022/05/07 08:31:02;;;;;;;5.65;3.00;;;;;;;21.49;42.49;101077.22;5044350;28;20053;-76
2022/05/07 08:33:31;;;;;;;6.50;3.30;;;;;;;21.53;42.36;101069.75;5038800;28;21357;-76
2022/05/07 08:35:58;;;;;;;3.47;3.17;;;;;;;21.76;41.37;101055.19;5046025;28;20053;-76
2022/05/07 08:38:25;;;;;;;3.85;3.20;;;;;;;22.14;39.59;101075.44;5040252;28;20056;-76
2022/05/07 08:40:53;;;;;;;3.20;2.83;;;;;;;22.18;39.92;101074.19;5045508;28;20096;-76
2022/05/07 08:43:20;;;;;;;4.10;2.53;;;;;;;22.11;40.45;101075.69;5046338;28;20401;-75
2022/05/07 08:45:48;;;;;;;4.43;2.80;;;;;;;22.14;40.61;101060.13;5043954;28;20057;-78
2022/05/07 08:48:14;;;;;;;3.63;2.80;;;;;;;22.12;40.34;101036.94;5040502;28;20369;-77
2022/05/07 08:50:42;;;;;;;5.95;3.00;;;;;;;22.47;39.28;101042.88;5047177;28;20049;-75
2022/05/07 08:53:09;;;;;;;4.10;2.38;;;;;;;22.91;38.60;101075.97;5039919;28;20128;-76
2022/05/07 08:55:36;;;;;;;4.47;2.72;;;;;;;22.74;38.88;101064.75;5042533;28;20055;-78
2022/05/07 08:58:03;;;;;;;4.80;2.83;;;;;;;22.65;38.88;101073.69;5045286;28;20057;-76
2022/05/07 09:00:30;;;;;;;5.10;2.85;;;;;;;22.73;38.29;101062.19;5022628;28;20052;-76
2022/05/07 09:02:59;;;;;;;2.70;2.47;;;;;;;23.02;37.94;101044.31;5038961;28;20516;-77
2022/05/07 09:05:37;;;;;;;4.30;2.80;;;;;;;23.24;37.56;101064.88;5041662;28;20080;-78
2022/05/07 09:08:06;;;;;;;3.03;2.40;;;;;;;23.37;37.19;101076.28;5044123;28;20111;-76
2022/05/07 09:10:37;;;;;;;3.92;2.30;;;;;;;23.38;36.25;101063.63;5045456;28;20056;-76
2022/05/07 09:13:15;;;;;;;4.15;2.50;;;;;;;22.89;35.99;101048.22;5042146;28;20052;-77
2022/05/07 09:15:50;;;;;;;3.00;2.42;;;;;;;22.68;37.51;101070.69;5042792;28;20049;-76
2022/05/07 09:18:19;;;;;;;6.95;2.80;;;;;;;22.20;38.69;101061.41;5039683;28;20046;-77
2022/05/07 09:21:16;;;;;;;6.10;2.73;;;;;;;21.67;39.51;101069.44;5043229;28;20053;-77
2022/05/07 09:24:00;;;;;;;3.33;2.97;;;;;;;21.39;38.96;101064.63;5045269;28;20494;-77
2022/05/07 09:26:37;;;;;;;6.68;2.63;;;;;;;20.87;40.46;101066.94;5038555;28;20100;-78
2022/05/07 09:29:10;;;;;;;5.15;3.17;;;;;;;20.64;40.45;101068.75;5043147;28;20056;-78
2022/05/07 09:31:41;;;;;;;3.55;2.55;;;;;;;20.65;39.81;101053.44;5040342;28;20128;-78
2022/05/07 09:36:56;;;;;;;3.88;2.20;;;;;;;21.04;39.34;101062.91;5039821;28;20073;-68
2022/05/07 09:39:30;;;;;;;4.82;2.30;;;;;;;21.04;39.17;101045.91;5043609;28;20076;-69
2022/05/07 09:41:58;;;;;;;4.45;2.38;;;;;;;21.19;38.24;101056.31;5037410;28;20064;-70
2022/05/07 09:44:27;;;;;;;3.67;2.00;;;;;;;21.21;37.49;101048.97;5036174;28;20060;-72
2022/05/07 09:46:56;;;;;;;4.35;2.20;;;;;;;21.11;37.96;101028.25;5038814;28;20053;-69
2022/05/07 09:49:28;;;;;;;3.83;2.38;;;;;;;21.17;38.44;101049.31;5037595;28;20044;-69
2022/05/07 09:51:55;;;;;;;3.00;2.30;;;;;;;21.23;37.64;101038.94;5037138;28;20049;-69
2022/05/07 10:00:03;;;;;;;2.70;1.80;;;;;;;21.02;37.46;101024.47;5035561;28;20060;-69
2022/05/07 10:03:09;;;;;;;2.67;1.40;;;;;;;21.27;37.36;101013.44;5036047;28;20073;-70
2022/05/07 10:05:54;;;;;;;2.15;1.55;;;;;;;21.74;33.65;101043.69;5028387;28;20058;-70
2022/05/07 10:08:27;;;;;;;2.65;1.77;;;;;;;21.73;33.25;101022.25;5043088;28;20127;-70
2022/05/07 10:10:54;;;;;;;6.70;1.95;;;;;;;21.78;33.72;101041.59;5037073;28;20052;-67
2022/05/07 10:13:21;;;;;;;3.58;1.60;;;;;;;21.87;33.38;101025.53;5023652;28;20045;-68
2022/05/07 10:16:01;;;;;;;2.90;2.25;;;;;;;21.84;33.41;101033.88;5037157;28;20056;-78
2022/05/07 10:18:38;;;;;;;5.38;1.90;;;;;;;21.67;33.12;101034.41;5037226;28;20507;-68
2022/05/07 10:21:16;;;;;;;2.42;1.55;;;;;;;21.64;33.17;101015.78;5034591;28;20045;-73
2022/05/07 10:23:54;;;;;;;4.35;1.70;;;;;;;21.76;32.52;101012.06;5037624;28;20057;-74
2022/05/07 10:26:41;;;;;;;4.13;1.80;;;;;;;22.02;33.01;101026.94;5018071;28;20076;-69
2022/05/07 10:29:20;;;;;;;4.55;2.63;;;;;;;22.14;31.18;101024.19;5045004;28;20148;-72
2022/05/07 10:31:47;;;;;;;3.00;2.10;;;;;;;22.17;31.56;101030.19;5034039;28;20051;-68
2022/05/07 10:34:27;;;;;;;2.80;1.92;;;;;;;22.22;30.86;101032.47;5031547;28;20045;-68
2022/05/07 10:37:04;;;;;;;2.97;2.00;;;;;;;22.10;32.05;101020.88;5034078;28;20191;-70
2022/05/07 10:39:31;;;;;;;4.43;2.45;;;;;;;21.99;31.97;101015.53;5021715;28;20631;-73
2022/05/07 10:42:01;;;;;;;4.78;1.98;;;;;;;21.99;31.82;101016.41;5040872;28;20057;-68
2022/05/07 10:44:30;;;;;;;3.72;2.40;;;;;;;22.00;32.53;101018.13;5031975;28;20045;-68
2022/05/07 10:47:09;;;;;;;3.15;1.85;;;;;;;21.96;32.29;101008.56;5035943;28;20106;-76
2022/05/07 10:50:06;;;;;;;4.72;2.38;;;;;;;22.12;31.87;101015.38;5033770;28;20509;-67
2022/05/07 10:52:34;;;;;;;4.28;2.53;;;;;;;22.09;32.65;100996.75;5032001;28;20119;-69
2022/05/07 10:55:17;;;;;;;3.92;2.60;;;;;;;22.40;31.34;101009.31;5037488;28;20049;-72
2022/05/07 10:57:46;;;;;;;3.42;2.15;;;;;;;22.49;31.47;101011.22;5044077;28;20414;-68
2022/05/07 11:00:17;;;;;;;4.30;2.60;;;;;;;22.55;31.12;101007.09;5043170;28;20181;-67
2022/05/07 11:02:45;;;;;;;3.42;2.22;;;;;;;22.53;31.18;101007.25;5040748;28;20061;-72
2022/05/07 11:05:12;;;;;;;4.63;2.55;;;;;;;22.53;31.29;101011.78;5042503;28;20093;-70
2022/05/07 11:07:40;;;;;;;4.82;2.33;;;;;;;22.50;30.94;100994.03;5045678;28;20056;-68
2022/05/07 11:10:11;;;;;;;3.67;2.03;;;;;;;22.59;31.07;100997.75;5043858;28;20080;-68
2022/05/07 11:12:39;;;;;;;7.18;2.40;;;;;;;22.60;32.22;100996.78;5040930;28;20045;-67
2022/05/07 11:15:09;;;;;;;4.45;2.22;;;;;;;22.55;31.88;101001.72;5044816;28;20079;-68
2022/05/07 11:17:40;;;;;;;2.10;1.90;;;;;;;22.40;32.19;100996.66;5039508;28;20060;-70
2022/05/07 11:20:10;;;;;;;5.53;2.47;;;;;;;22.34;32.65;100986.44;5040120;28;20133;-77
2022/05/07 11:22:39;;;;;;;3.47;2.35;;;;;;;22.38;33.38;100981.59;5039811;28;20075;-69
2022/05/07 11:25:08;;;;;;;4.40;2.33;;;;;;;22.38;33.05;100976.19;5041188;28;20076;-69
2022/05/07 11:27:35;;;;;;;2.92;2.20;;;;;;;22.55;33.46;100986.38;5048955;28;20060;-70
2022/05/07 11:30:12;;;;;;;4.90;2.80;;;;;;;22.72;32.60;100974.94;5041229;28;20052;-70
2022/05/07 11:32:41;;;;;;;4.53;2.88;;;;;;;22.88;32.57;100976.31;5038795;28;20084;-69
2022/05/07 11:35:09;;;;;;;3.35;2.75;;;;;;;22.97;32.41;100972.81;5047736;28;20309;-70
2022/05/07 11:37:41;;;;;;;4.05;2.08;;;;;;;23.00;32.16;100977.91;5034338;28;20493;-72
2022/05/07 11:40:12;;;;;;;6.03;2.40;;;;;;;23.06;32.38;100971.97;5043716;28;20428;-69
2022/05/07 11:42:39;;;;;;;3.83;2.45;;;;;;;23.17;32.21;100971.84;5042801;28;20088;-70
2022/05/07 11:45:27;;;;;;;3.15;2.30;;;;;;;23.33;31.91;100971.28;5042479;28;20539;-70
2022/05/07 11:48:14;;;;;;;4.07;3.05;;;;;;;23.38;31.15;100980.69;5038875;28;20059;-70
2022/05/07 11:50:51;;;;;;;4.70;2.80;;;;;;;23.30;31.01;100980.53;5033067;28;21092;-69
2022/05/07 11:53:20;;;;;;;3.58;2.53;;;;;;;23.32;31.07;100962.34;5025319;28;20610;-70
2022/05/07 11:55:49;;;;;;;3.25;2.70;;;;;;;23.43;31.12;100964.06;5039638;28;20578;-68
2022/05/07 11:58:23;;;;;;;3.65;2.08;;;;;;;23.51;31.36;100963.34;5036067;28;20052;-69